Time;durP1;ratioP1;P1;durP2;ratioP2;P2;SDS_P1;SDS_P2;PMS_P1;PMS_P2;Temp;Humidity;BMP_temperature;BMP_pressure;BME280_temperature;BME280_humidity;BME280_pressure;Samples;Min_cycle;Max_cycle;Signal;HPM_P1;HPM_P2
2023/09/20 00:02:18;;;;;;;2.83;2.47;;;19.40;66.30;;;;;;6122252;23;20167;-82
2023/09/20 00:04:47;;;;;;;3.33;2.70;;;19.40;66.10;;;;;;6122255;23;20611;-83
2023/09/20 00:07:13;;;;;;;2.58;2.20;;;19.50;66.10;;;;;;6120729;23;20128;-83
2023/09/20 00:09:39;;;;;;;3.47;2.65;;;19.50;66.10;;;;;;6095658;23;20210;-84
2023/09/20 00:12:06;;;;;;;4.53;2.60;;;19.50;66.00;;;;;;6122215;23;20136;-83
2023/09/20 00:14:32;;;;;;;3.35;2.70;;;19.50;66.20;;;;;;6122121;23;20556;-85
2023/09/20 00:17:00;;;;;;;3.00;2.60;;;19.50;66.10;;;;;;6122230;23;20143;-82
2023/09/20 00:19:26;;;;;;;3.25;2.70;;;19.50;66.20;;;;;;6120684;23;20156;-81
2023/09/20 00:21:52;;;;;;;2.53;2.30;;;19.40;66.00;;;;;;6122301;23;20216;-83
2023/09/20 00:24:17;;;;;;;2.65;2.40;;;19.50;66.00;;;;;;6133116;22;20246;-80
2023/09/20 00:26:43;;;;;;;2.78;2.30;;;19.50;66.90;;;;;;6151722;22;20140;-82
2023/09/20 00:29:09;;;;;;;2.60;2.38;;;19.50;66.20;;;;;;6151857;22;20252;-82
2023/09/20 00:31:34;;;;;;;3.35;2.20;;;19.40;66.10;;;;;;6151619;22;20132;-83
2023/09/20 00:34:03;;;;;;;2.80;2.50;;;19.50;66.30;;;;;;6125487;23;20166;-80
2023/09/20 00:36:30;;;;;;;3.05;2.42;;;19.50;66.50;;;;;;6125944;23;20124;-85
2023/09/20 00:38:57;;;;;;;2.65;2.20;;;19.50;66.40;;;;;;6125608;23;20148;-83
2023/09/20 00:41:24;;;;;;;2.92;2.55;;;19.50;66.30;;;;;;6125442;23;20157;-84
2023/09/20 00:43:54;;;;;;;2.90;2.28;;;19.50;66.30;;;;;;6125401;23;20152;-81
2023/09/20 00:46:20;;;;;;;3.35;2.47;;;19.50;66.50;;;;;;6151829;22;20136;-81
2023/09/20 00:48:46;;;;;;;2.63;2.10;;;19.50;66.60;;;;;;6125114;23;20186;-83
2023/09/20 00:51:12;;;;;;;3.40;2.60;;;19.40;66.40;;;;;;6125535;23;20166;-82
2023/09/20 00:53:38;;;;;;;3.35;2.83;;;19.50;66.30;;;;;;6125689;23;20226;-81
2023/09/20 00:56:05;;;;;;;3.28;2.55;;;19.50;66.60;;;;;;6125648;23;20539;-81
2023/09/20 00:58:34;;;;;;;2.80;2.35;;;19.50;66.80;;;;;;6125644;23;20140;-82
2023/09/20 01:01:00;;;;;;;2.40;2.20;;;19.50;66.80;;;;;;6151629;22;20159;-82
2023/09/20 01:03:26;;;;;;;2.72;2.40;;;19.50;66.90;;;;;;6106430;23;20128;-82
2023/09/20 01:05:51;;;;;;;2.20;2.00;;;19.40;66.50;;;;;;6157394;22;20151;-82
2023/09/20 01:08:20;;;;;;;2.95;2.60;;;19.40;66.70;;;;;;6130061;23;20249;-81
2023/09/20 01:10:46;;;;;;;2.97;2.05;;;19.50;66.70;;;;;;6157283;22;20632;-84
2023/09/20 01:13:12;;;;;;;2.60;2.35;;;19.50;66.30;;;;;;6102692;23;20128;-81
2023/09/20 01:15:38;;;;;;;2.60;2.40;;;19.50;66.50;;;;;;6152734;22;20132;-83
2023/09/20 01:18:08;;;;;;;2.83;2.53;;;19.40;66.70;;;;;;6152996;22;20132;-80
2023/09/20 01:20:37;;;;;;;2.45;2.25;;;19.40;66.50;;;;;;6180154;23;20158;-83
2023/09/20 01:23:03;;;;;;;3.10;2.30;;;19.50;66.80;;;;;;6125270;23;20162;-81
2023/09/20 01:25:35;;;;;;;2.88;2.45;;;19.40;66.70;;;;;;6150820;22;20191;-81
2023/09/20 01:28:06;;;;;;;2.22;2.00;;;19.40;66.80;;;;;;6076005;23;20156;-82
2023/09/20 01:30:33;;;;;;;2.85;2.40;;;19.50;66.90;;;;;;6201364;23;20159;-83
2023/09/20 01:33:00;;;;;;;2.75;2.33;;;19.40;66.90;;;;;;6125043;23;20147;-82
2023/09/20 01:35:29;;;;;;;2.72;2.38;;;19.40;66.90;;;;;;6125484;23;20132;-83
2023/09/20 01:37:57;;;;;;;2.55;2.22;;;19.50;66.90;;;;;;6051915;23;20602;-82
2023/09/20 01:40:25;;;;;;;3.03;2.50;;;19.40;66.70;;;;;;6176936;23;20930;-81
2023/09/20 01:42:53;;;;;;;2.78;2.50;;;19.50;66.70;;;;;;6077602;23;20156;-81
2023/09/20 01:45:21;;;;;;;4.43;2.80;;;19.40;66.90;;;;;;6201846;23;20156;-80
2023/09/20 01:47:49;;;;;;;2.70;2.40;;;19.50;67.10;;;;;;6152106;23;20151;-82
2023/09/20 01:50:20;;;;;;;2.58;2.30;;;19.40;67.10;;;;;;6125938;23;20175;-80
2023/09/20 01:52:50;;;;;;;3.15;2.47;;;19.50;67.10;;;;;;6200584;23;20182;-81
2023/09/20 01:55:18;;;;;;;2.83;2.20;;;19.40;67.10;;;;;;6201342;23;20181;-81
2023/09/20 01:57:45;;;;;;;2.75;2.53;;;19.40;67.00;;;;;;6125523;23;20127;-81
2023/09/20 02:00:18;;;;;;;2.60;2.40;;;19.40;66.70;;;;;;6100799;23;20154;-82
2023/09/20 02:02:44;;;;;;;2.53;2.25;;;19.40;66.70;;;;;;6101764;23;20600;-83
2023/09/20 02:05:14;;;;;;;2.70;2.40;;;19.40;67.30;;;;;;6150976;22;20138;-81
2023/09/20 02:07:40;;;;;;;2.70;2.30;;;19.40;67.10;;;;;;6124964;23;20128;-84
2023/09/20 02:10:07;;;;;;;2.80;2.50;;;19.40;67.20;;;;;;6151691;22;20186;-80
2023/09/20 02:12:34;;;;;;;3.05;2.38;;;19.40;67.10;;;;;;6125512;23;20132;-84
2023/09/20 02:15:01;;;;;;;2.95;2.65;;;19.40;67.10;;;;;;6101388;23;20132;-86
2023/09/20 02:17:28;;;;;;;3.30;2.45;;;19.40;66.90;;;;;;6125360;23;20128;-80
2023/09/20 02:19:54;;;;;;;2.80;2.50;;;19.40;67.20;;;;;;6101137;23;20155;-83
2023/09/20 02:22:20;;;;;;;2.58;2.35;;;19.40;67.10;;;;;;6125045;23;20225;-82
2023/09/20 02:24:46;;;;;;;3.05;2.40;;;19.40;67.00;;;;;;6150687;23;20256;-83
2023/09/20 02:27:11;;;;;;;2.47;2.28;;;19.40;67.20;;;;;;6150971;22;20514;-84
2023/09/20 02:29:37;;;;;;;2.53;2.33;;;19.40;67.30;;;;;;6125114;23;20168;-81
2023/09/20 02:32:03;;;;;;;2.75;2.30;;;19.40;67.20;;;;;;6100449;23;20576;-83
2023/09/20 02:34:29;;;;;;;2.92;2.22;;;19.40;67.00;;;;;;6125126;23;20151;-80
2023/09/20 02:36:56;;;;;;;3.13;2.47;;;19.40;67.10;;;;;;6150707;22;20159;-83
2023/09/20 02:39:22;;;;;;;3.33;2.50;;;19.40;67.40;;;;;;6150972;22;20222;-85
2023/09/20 02:41:48;;;;;;;2.50;2.30;;;19.40;67.40;;;;;;6124910;23;20152;-82
2023/09/20 02:44:14;;;;;;;2.60;2.30;;;19.40;67.40;;;;;;6150943;22;20184;-84
2023/09/20 02:46:40;;;;;;;2.47;2.25;;;19.40;67.40;;;;;;6124803;23;20147;-83
2023/09/20 02:49:07;;;;;;;3.05;2.40;;;19.40;67.10;;;;;;6150755;22;20502;-81
2023/09/20 02:51:35;;;;;;;3.03;2.47;;;19.40;67.40;;;;;;6125177;23;20136;-84
2023/09/20 02:54:01;;;;;;;2.55;2.35;;;19.40;67.40;;;;;;6101008;23;20471;-85
2023/09/20 02:56:27;;;;;;;2.80;2.22;;;19.40;67.20;;;;;;6125429;23;20136;-84
2023/09/20 02:58:52;;;;;;;2.50;2.28;;;19.30;67.40;;;;;;6150829;22;20522;-81
2023/09/20 03:01:20;;;;;;;3.08;2.22;;;19.30;67.40;;;;;;6100698;23;20146;-81
2023/09/20 03:03:46;;;;;;;2.83;2.40;;;19.40;67.40;;;;;;6125173;23;20139;-81
2023/09/20 03:06:12;;;;;;;2.72;2.30;;;19.30;67.40;;;;;;6100477;23;20195;-82
2023/09/20 03:08:44;;;;;;;2.53;2.10;;;19.40;67.40;;;;;;6099675;23;20233;-83
2023/09/20 03:11:18;;;;;;;3.03;2.58;;;19.40;67.50;;;;;;6126243;23;20136;-81
2023/09/20 03:13:44;;;;;;;3.08;2.40;;;19.30;67.40;;;;;;6124435;23;20159;-83
2023/09/20 03:16:10;;;;;;;2.95;2.28;;;19.40;67.50;;;;;;6124915;23;20220;-82
2023/09/20 03:18:36;;;;;;;3.92;2.20;;;19.30;67.00;;;;;;6124669;23;20158;-83
2023/09/20 03:21:05;;;;;;;2.53;2.30;;;19.30;67.60;;;;;;6076313;23;20156;-82
2023/09/20 03:23:31;;;;;;;2.55;2.10;;;19.40;67.70;;;;;;6150339;22;20269;-83
2023/09/20 03:25:58;;;;;;;2.97;2.47;;;19.30;67.30;;;;;;6150432;22;20199;-80
2023/09/20 03:28:24;;;;;;;2.58;2.28;;;19.30;67.60;;;;;;6150426;22;20541;-82
2023/09/20 03:30:51;;;;;;;3.03;2.30;;;19.30;67.60;;;;;;6100179;23;20148;-82
2023/09/20 03:33:20;;;;;;;2.80;2.47;;;19.30;67.70;;;;;;6150534;22;20511;-81
2023/09/20 03:35:46;;;;;;;2.50;2.15;;;19.40;67.70;;;;;;6150431;22;20132;-81
2023/09/20 03:38:14;;;;;;;2.70;2.20;;;19.40;67.60;;;;;;6150526;22;20159;-81
2023/09/20 03:40:41;;;;;;;2.63;2.28;;;19.40;67.50;;;;;;6150407;22;20654;-84
2023/09/20 03:43:08;;;;;;;2.50;2.30;;;19.30;67.50;;;;;;6124377;23;20143;-82
2023/09/20 03:45:34;;;;;;;3.10;2.50;;;19.40;67.80;;;;;;6150635;23;20136;-83
2023/09/20 03:48:01;;;;;;;2.40;2.20;;;19.30;67.60;;;;;;6150300;22;20220;-85
2023/09/20 03:50:27;;;;;;;2.28;2.08;;;19.40;67.90;;;;;;6150239;22;20653;-83
2023/09/20 03:52:53;;;;;;;3.00;2.42;;;19.30;67.60;;;;;;6150186;22;20132;-81
2023/09/20 03:55:19;;;;;;;3.08;2.53;;;19.40;67.80;;;;;;6124431;23;20564;-80
2023/09/20 03:57:45;;;;;;;2.40;2.20;;;19.30;67.40;;;;;;6100239;23;20142;-82
2023/09/20 04:00:11;;;;;;;2.90;2.30;;;19.30;67.60;;;;;;6075551;23;20175;-82
2023/09/20 04:02:38;;;;;;;2.30;2.10;;;19.30;67.80;;;;;;6124240;23;20230;-81
2023/09/20 04:05:10;;;;;;;3.28;2.20;;;19.30;68.00;;;;;;6124083;23;20136;-81
2023/09/20 04:07:36;;;;;;;2.75;2.40;;;19.30;67.80;;;;;;6123233;23;20194;-83
2023/09/20 04:10:03;;;;;;;2.88;2.35;;;19.30;67.70;;;;;;6099715;23;20190;-83
2023/09/20 04:12:28;;;;;;;2.60;2.40;;;19.30;67.70;;;;;;6123562;23;20190;-81
2023/09/20 04:14:54;;;;;;;3.15;2.45;;;19.30;67.60;;;;;;6124552;23;20131;-83
2023/09/20 04:17:22;;;;;;;2.55;2.15;;;19.30;67.70;;;;;;6151919;22;20143;-81
2023/09/20 04:19:48;;;;;;;2.15;1.95;;;19.30;68.00;;;;;;6126292;23;20593;-81
2023/09/20 04:22:14;;;;;;;2.72;2.28;;;19.30;68.10;;;;;;6151619;22;20164;-84
2023/09/20 04:24:39;;;;;;;3.10;2.50;;;19.30;68.00;;;;;;6096050;23;20206;-82
2023/09/20 04:27:05;;;;;;;2.35;2.03;;;19.30;67.90;;;;;;6120570;23;20152;-84
2023/09/20 04:29:31;;;;;;;2.47;2.15;;;19.30;67.80;;;;;;6095961;23;20188;-84
2023/09/20 04:31:57;;;;;;;2.60;2.40;;;19.30;67.80;;;;;;6120690;23;20215;-84
2023/09/20 04:34:23;;;;;;;2.60;2.15;;;19.30;67.80;;;;;;6120975;23;20159;-83
2023/09/20 04:36:51;;;;;;;2.85;2.28;;;19.30;68.70;;;;;;6120697;23;20148;-84
2023/09/20 04:39:17;;;;;;;2.50;2.30;;;19.30;68.20;;;;;;6120554;23;20144;-83
2023/09/20 04:41:42;;;;;;;2.65;2.20;;;19.40;68.20;;;;;;6122085;23;20139;-81
2023/09/20 04:44:08;;;;;;;2.35;2.15;;;19.30;68.00;;;;;;6120601;23;20220;-82
2023/09/20 04:46:36;;;;;;;2.42;2.15;;;19.30;68.00;;;;;;6122362;23;20132;-81
2023/09/20 04:49:04;;;;;;;2.58;2.08;;;19.30;68.00;;;;;;6121621;23;20211;-80
2023/09/20 04:51:30;;;;;;;2.83;2.13;;;19.30;68.00;;;;;;6096594;23;20152;-84
2023/09/20 04:53:56;;;;;;;3.20;2.35;;;19.30;68.10;;;;;;6120614;23;20156;-85
2023/09/20 04:56:23;;;;;;;3.00;2.33;;;19.30;68.20;;;;;;6122412;23;20133;-81
2023/09/20 04:58:49;;;;;;;2.55;2.05;;;19.30;68.10;;;;;;6120491;23;20156;-84
2023/09/20 05:01:15;;;;;;;3.08;2.50;;;19.30;68.10;;;;;;6121840;23;20136;-81
2023/09/20 05:03:41;;;;;;;2.33;2.13;;;19.30;68.10;;;;;;6120368;23;20230;-83
2023/09/20 05:06:08;;;;;;;2.58;2.38;;;19.30;68.10;;;;;;6122249;23;20133;-80
2023/09/20 05:08:33;;;;;;;2.70;2.30;;;19.30;68.10;;;;;;6119450;23;20195;-82
2023/09/20 05:10:59;;;;;;;2.40;2.20;;;19.30;67.90;;;;;;6121918;23;20136;-84
2023/09/20 05:13:25;;;;;;;2.83;2.42;;;19.30;68.10;;;;;;6120836;23;20438;-81
2023/09/20 05:15:50;;;;;;;2.67;2.40;;;19.30;68.20;;;;;;6120571;23;20167;-84
2023/09/20 05:18:16;;;;;;;2.80;2.38;;;19.30;68.20;;;;;;6120404;23;20144;-82
2023/09/20 05:20:45;;;;;;;2.55;2.33;;;19.30;68.10;;;;;;6122022;23;20136;-82
2023/09/20 05:23:11;;;;;;;2.47;2.22;;;19.30;68.10;;;;;;6120462;23;20202;-84
2023/09/20 05:25:37;;;;;;;2.75;2.30;;;19.30;68.20;;;;;;6095881;23;20188;-82
2023/09/20 05:28:04;;;;;;;2.22;2.03;;;19.30;68.10;;;;;;6120515;23;20564;-82
2023/09/20 05:30:30;;;;;;;2.40;2.20;;;19.30;68.10;;;;;;6096532;23;20528;-83
2023/09/20 05:32:56;;;;;;;2.95;2.20;;;19.30;68.10;;;;;;6072125;23;20568;-81
2023/09/20 05:35:22;;;;;;;2.65;2.22;;;19.30;68.30;;;;;;6121629;23;20215;-85
2023/09/20 05:37:48;;;;;;;2.75;2.28;;;19.30;68.20;;;;;;6121764;23;20136;-82
2023/09/20 05:40:17;;;;;;;2.20;2.00;;;19.30;68.50;;;;;;6096029;23;20148;-83
2023/09/20 05:42:46;;;;;;;2.45;2.10;;;19.30;68.50;;;;;;6120682;23;20133;-85
2023/09/20 05:45:12;;;;;;;1.73;1.63;;;19.30;68.60;;;;;;6121841;23;20128;-80
2023/09/20 05:47:40;;;;;;;1.60;1.50;;;19.30;68.80;;;;;;6121487;23;20148;-83
2023/09/20 05:50:07;;;;;;;1.65;1.55;;;19.30;69.10;;;;;;6120186;23;20175;-81
2023/09/20 05:52:33;;;;;;;1.67;1.58;;;19.20;69.20;;;;;;6120300;23;20178;-80
2023/09/20 05:54:58;;;;;;;1.75;1.48;;;19.30;69.50;;;;;;6120613;23;20230;-83
2023/09/20 05:57:27;;;;;;;1.60;1.50;;;19.20;69.80;;;;;;6095867;23;20151;-81
2023/09/20 05:59:54;;;;;;;2.03;1.60;;;19.10;70.00;;;;;;6121302;23;20471;-84
2023/09/20 06:02:20;;;;;;;1.83;1.42;;;19.10;70.30;;;;;;6072341;23;20242;-84
2023/09/20 06:04:46;;;;;;;1.85;1.48;;;19.10;70.40;;;;;;6121639;23;20171;-82
2023/09/20 06:07:12;;;;;;;1.95;1.75;;;19.10;70.60;;;;;;6095511;23;20148;-81
2023/09/20 06:09:38;;;;;;;1.77;1.48;;;19.10;70.70;;;;;;6095198;23;20646;-84
2023/09/20 06:12:05;;;;;;;3.78;1.50;;;19.10;70.90;;;;;;6121727;23;20136;-84
2023/09/20 06:14:31;;;;;;;1.55;1.30;;;19.00;70.90;;;;;;6096784;23;20214;-85
2023/09/20 06:17:02;;;;;;;3.67;1.67;;;19.10;71.10;;;;;;6096368;23;20152;-84
2023/09/20 06:19:30;;;;;;;1.80;1.70;;;19.10;71.30;;;;;;6176007;23;20152;-83
2023/09/20 06:21:57;;;;;;;1.98;1.40;;;19.10;71.30;;;;;;6096057;23;20159;-82
2023/09/20 06:24:26;;;;;;;1.80;1.60;;;19.00;71.50;;;;;;6119464;22;20191;-85
2023/09/20 06:26:53;;;;;;;1.45;1.33;;;19.00;71.60;;;;;;6046251;23;20498;-86
2023/09/20 06:29:24;;;;;;;1.45;1.30;;;19.00;71.60;;;;;;6096856;23;20179;-87
2023/09/20 06:31:53;;;;;;;2.13;1.52;;;19.00;71.80;;;;;;6050236;23;20166;-86
2023/09/20 06:35:31;;;;;;;1.63;1.25;;;19.00;72.00;;;;;;6097885;23;20159;-88
2023/09/20 06:40:58;;;;;;;1.50;1.40;;;18.90;72.10;;;;;;6104367;23;20147;-86
2023/09/20 06:43:27;;;;;;;1.63;1.52;;;19.00;72.00;;;;;;6078327;23;20207;-87
2023/09/20 06:45:53;;;;;;;1.27;1.10;;;19.00;72.10;;;;;;6098718;23;20144;-88
2023/09/20 06:48:42;;;;;;;1.77;1.50;;;19.00;72.30;;;;;;6075905;23;20144;-88
2023/09/20 06:51:21;;;;;;;1.33;1.20;;;19.00;72.30;;;;;;6123623;23;20137;-89
2023/09/20 06:54:28;;;;;;;;;;;;;;;;;;;;;
2023/09/20 06:57:02;;;;;;;1.30;1.20;;;19.00;72.50;;;;;;6059351;23;20230;-88
2023/09/20 06:59:59;;;;;;;0.98;0.82;;;19.00;72.50;;;;;;6047796;23;20156;-87
2023/09/20 07:02:42;;;;;;;1.20;1.02;;;19.00;72.70;;;;;;6061060;23;20153;-80
2023/09/20 07:05:09;;;;;;;1.40;1.30;;;19.00;72.80;;;;;;6069767;23;20512;-82
2023/09/20 07:07:35;;;;;;;1.40;1.15;;;19.00;72.80;;;;;;6086322;23;20799;-83
2023/09/20 07:10:03;;;;;;;1.30;1.20;;;19.00;73.00;;;;;;5975913;24;20659;-85
2023/09/20 07:12:28;;;;;;;0.80;0.80;;;19.00;73.20;;;;;;5952781;24;20182;-83
2023/09/20 07:14:55;;;;;;;1.40;1.30;;;19.00;73.20;;;;;;5952793;24;20139;-83
2023/09/20 07:17:24;;;;;;;1.20;1.10;;;19.00;73.20;;;;;;5954508;24;20233;-81
2023/09/20 07:19:57;;;;;;;1.40;1.20;;;19.10;73.50;;;;;;6015538;23;20656;-83
2023/09/20 07:22:29;;;;;;;1.88;1.30;;;19.00;73.60;;;;;;6070727;23;20163;-82
2023/09/20 07:24:56;;;;;;;3.13;1.20;;;19.00;73.70;;;;;;6087939;23;20199;-83
2023/09/20 07:27:24;;;;;;;1.13;1.00;;;19.00;74.70;;;;;;6098490;23;20149;-81
2023/09/20 07:29:51;;;;;;;1.35;1.25;;;19.00;74.00;;;;;;6098890;23;20624;-83
2023/09/20 07:32:18;;;;;;;2.38;1.45;;;19.00;74.00;;;;;;6098662;23;20129;-80
2023/09/20 07:35:19;;;;;;;1.52;1.23;;;18.90;74.10;;;;;;6067211;23;20153;-82
2023/09/20 07:37:43;;;;;;;1.48;1.30;;;19.00;74.30;;;;;;6089209;23;20161;-83
2023/09/20 07:40:09;;;;;;;1.40;1.25;;;19.00;74.30;;;;;;6183077;23;20159;-83
2023/09/20 07:42:36;;;;;;;1.40;1.20;;;19.00;74.30;;;;;;6182290;23;20638;-82
2023/09/20 07:45:12;;;;;;;1.33;1.23;;;19.00;74.40;;;;;;6182627;23;20599;-82
2023/09/20 07:47:39;;;;;;;1.30;1.20;;;19.00;74.50;;;;;;6181796;23;20174;-80
2023/09/20 07:50:07;;;;;;;1.95;1.10;;;19.00;74.70;;;;;;6183080;23;20185;-83
2023/09/20 07:52:35;;;;;;;1.38;1.27;;;19.00;74.80;;;;;;6159242;23;20205;-82
2023/09/20 07:55:08;;;;;;;1.48;1.30;;;19.00;74.90;;;;;;6158949;23;20541;-83
2023/09/20 07:57:34;;;;;;;1.23;1.13;;;19.00;75.00;;;;;;6184074;23;20549;-80
2023/09/20 07:59:59;;;;;;;1.17;1.08;;;19.00;75.10;;;;;;6183902;23;20182;-84
2023/09/20 08:02:28;;;;;;;1.33;1.17;;;19.00;75.10;;;;;;6158728;23;20614;-80
2023/09/20 08:04:54;;;;;;;1.27;1.15;;;19.00;75.20;;;;;;6158655;23;20254;-83
2023/09/20 08:07:21;;;;;;;1.30;1.20;;;19.00;75.40;;;;;;6185185;23;20183;-83
2023/09/20 08:09:46;;;;;;;1.98;1.33;;;19.00;75.50;;;;;;6183775;23;20167;-83
2023/09/20 08:12:12;;;;;;;2.30;1.33;;;19.00;75.50;;;;;;6094113;23;20167;-80
2023/09/20 08:14:38;;;;;;;1.20;1.10;;;19.10;75.60;;;;;;6092040;23;20140;-83
2023/09/20 08:20:01;;;;;;;2.47;1.60;;;19.00;75.80;;;;;;6093184;23;20220;-81
2023/09/20 09:02:54;;;;;;;1.90;1.70;;;19.00;76.60;;;;;;6195049;23;20160;-84
2023/09/20 09:05:22;;;;;;;2.72;1.60;;;19.10;76.60;;;;;;6225934;23;20213;-82
2023/09/20 09:07:49;;;;;;;3.50;1.80;;;19.10;76.60;;;;;;6050390;23;20168;-80
2023/09/20 09:10:15;;;;;;;2.28;1.60;;;19.10;76.70;;;;;;6173284;23;20222;-82
2023/09/20 09:12:42;;;;;;;1.80;1.70;;;19.10;76.60;;;;;;6096894;23;20140;-83
2023/09/20 09:15:08;;;;;;;3.78;1.40;;;19.10;76.70;;;;;;6097312;23;20197;-79
2023/09/20 09:17:44;;;;;;;1.98;1.63;;;19.10;76.70;;;;;;6074068;23;20152;-84
2023/09/20 09:20:11;;;;;;;1.50;1.33;;;19.10;76.70;;;;;;6123509;23;20144;-84
2023/09/20 09:22:40;;;;;;;1.80;1.52;;;19.10;76.90;;;;;;6121216;23;20144;-83
2023/09/20 09:25:11;;;;;;;1.95;1.30;;;19.10;77.00;;;;;;6067665;23;20200;-82
2023/09/20 09:27:37;;;;;;;1.60;1.50;;;19.10;77.00;;;;;;6091471;23;20222;-83
2023/09/20 09:30:04;;;;;;;1.60;1.48;;;19.10;77.00;;;;;;6091332;23;20235;-80
2023/09/20 09:32:37;;;;;;;1.83;1.50;;;19.10;76.90;;;;;;6092719;23;20243;-82
2023/09/20 09:35:06;;;;;;;1.60;1.40;;;19.10;77.00;;;;;;6067142;23;20174;-81
2023/09/20 09:37:32;;;;;;;1.40;1.30;;;19.10;76.90;;;;;;6091609;23;20133;-81
2023/09/20 09:40:00;;;;;;;1.70;1.60;;;19.10;76.90;;;;;;6067754;23;20150;-83
2023/09/20 09:42:28;;;;;;;1.70;1.40;;;19.10;76.90;;;;;;6093440;23;20476;-82
2023/09/20 09:44:55;;;;;;;1.65;1.50;;;19.10;76.80;;;;;;6093183;23;20221;-82
2023/09/20 09:47:21;;;;;;;2.15;1.75;;;19.10;76.70;;;;;;6094073;23;20141;-84
2023/09/20 09:49:48;;;;;;;2.05;1.55;;;19.10;76.80;;;;;;6093176;23;20180;-82
2023/09/20 09:52:16;;;;;;;1.55;1.45;;;19.10;76.70;;;;;;6091705;23;20134;-82
2023/09/20 09:54:44;;;;;;;1.55;1.45;;;19.10;76.70;;;;;;6092532;23;20442;-83
2023/09/20 09:57:11;;;;;;;2.65;1.58;;;19.10;76.60;;;;;;6091121;23;20129;-83
2023/09/20 09:59:39;;;;;;;1.85;1.40;;;19.10;76.60;;;;;;6093335;23;20216;-82
2023/09/20 10:02:14;;;;;;;1.60;1.50;;;19.10;76.50;;;;;;6093360;23;20498;-81
2023/09/20 10:04:41;;;;;;;1.50;1.33;;;19.10;76.50;;;;;;6091774;23;20186;-84
2023/09/20 10:07:15;;;;;;;1.77;1.50;;;19.10;76.50;;;;;;6092689;23;20207;-82
2023/09/20 10:09:48;;;;;;;1.50;1.30;;;19.10;76.60;;;;;;6092075;23;20183;-82
2023/09/20 10:12:15;;;;;;;1.40;1.30;;;19.10;76.50;;;;;;6188993;23;20761;-83
2023/09/20 10:14:43;;;;;;;2.28;1.42;;;19.20;76.60;;;;;;6092141;23;20152;-82
2023/09/20 10:17:09;;;;;;;2.05;1.27;;;19.20;76.50;;;;;;6192458;23;20164;-81
2023/09/20 10:19:38;;;;;;;2.35;1.80;;;19.20;76.50;;;;;;6091338;23;20152;-79
2023/09/20 10:22:08;;;;;;;2.75;1.50;;;19.20;76.60;;;;;;6190542;23;20596;-84
2023/09/20 10:24:50;;;;;;;1.65;1.40;;;19.20;76.50;;;;;;6176506;23;20646;-82
2023/09/20 10:27:17;;;;;;;1.90;1.80;;;19.20;76.50;;;;;;6169700;23;20160;-83
2023/09/20 10:30:09;;;;;;;1.75;1.60;;;19.20;76.50;;;;;;6122359;23;20671;-82
2023/09/20 10:32:59;;;;;;;1.88;1.67;;;19.20;77.50;;;;;;6121871;23;20151;-82
2023/09/20 10:35:30;;;;;;;1.90;1.60;;;19.20;76.60;;;;;;6121846;23;20194;-80
2023/09/20 10:40:56;;;;;;;1.50;1.40;;;19.20;76.50;;;;;;6121744;23;20147;-84
2023/09/20 10:43:34;;;;;;;1.40;1.30;;;19.20;76.60;;;;;;6121818;23;20158;-83
2023/09/20 10:46:00;;;;;;;1.83;1.60;;;19.20;76.60;;;;;;6123697;23;20147;-83
2023/09/20 10:48:27;;;;;;;1.13;1.02;;;19.20;76.60;;;;;;6077626;23;20201;-80
2023/09/20 10:50:57;;;;;;;1.52;1.42;;;19.20;76.60;;;;;;6123757;23;20159;-81
2023/09/20 10:53:56;;;;;;;1.38;1.27;;;19.20;76.50;;;;;;6125011;23;20143;-82
2023/09/20 10:56:54;;;;;;;2.03;1.83;;;19.20;76.50;;;;;;6121404;23;20136;-82
2023/09/20 10:59:23;;;;;;;1.60;1.33;;;19.20;76.50;;;;;;6121379;23;20145;-84
2023/09/20 11:01:59;;;;;;;1.52;1.42;;;19.20;76.40;;;;;;6121511;23;20456;-82
2023/09/20 11:04:25;;;;;;;1.52;1.40;;;19.30;76.50;;;;;;6121568;23;20147;-81
2023/09/20 11:06:52;;;;;;;1.30;1.13;;;19.20;76.50;;;;;;6118594;23;20153;-81
2023/09/20 11:09:20;;;;;;;1.40;1.30;;;19.20;76.30;;;;;;6220599;23;20237;-82
2023/09/20 11:11:46;;;;;;;1.98;1.30;;;19.20;76.50;;;;;;6121472;23;20133;-85
2023/09/20 11:14:12;;;;;;;1.50;1.20;;;19.20;76.50;;;;;;6120233;23;20136;-81
2023/09/20 11:16:43;;;;;;;1.50;1.40;;;19.30;76.50;;;;;;6120865;23;20132;-83
2023/09/20 11:19:11;;;;;;;1.40;1.30;;;19.30;76.30;;;;;;6122938;23;20139;-82
2023/09/20 11:21:41;;;;;;;1.48;1.38;;;19.30;76.30;;;;;;6122825;23;20141;-84
2023/09/20 11:24:10;;;;;;;1.00;1.00;;;19.30;76.30;;;;;;6124217;23;20154;-83
2023/09/20 11:26:36;;;;;;;1.48;1.38;;;19.30;76.20;;;;;;6126145;23;20525;-83
2023/09/20 11:29:04;;;;;;;1.25;1.15;;;19.30;76.20;;;;;;6126955;23;20595;-81
2023/09/20 11:31:31;;;;;;;1.42;1.33;;;19.40;76.30;;;;;;6104561;23;20440;-82
2023/09/20 11:33:58;;;;;;;1.20;1.10;;;19.40;76.30;;;;;;6128465;23;20471;-80
2023/09/20 11:36:25;;;;;;;2.15;1.50;;;19.30;76.20;;;;;;6127718;23;20155;-81
2023/09/20 11:38:51;;;;;;;1.38;1.27;;;19.40;76.30;;;;;;6103384;23;20183;-84
2023/09/20 11:41:17;;;;;;;1.30;1.20;;;19.30;76.20;;;;;;6155099;22;20136;-84
2023/09/20 11:43:45;;;;;;;1.25;1.15;;;19.40;76.30;;;;;;6104953;23;20564;-81
2023/09/20 11:46:11;;;;;;;1.42;1.00;;;19.40;76.20;;;;;;6103185;23;20139;-82
2023/09/20 11:48:37;;;;;;;1.27;1.17;;;19.40;76.20;;;;;;6102297;23;20147;-82
2023/09/20 11:51:04;;;;;;;1.60;1.30;;;19.40;76.20;;;;;;6126616;23;20131;-85
2023/09/20 11:53:31;;;;;;;1.63;1.40;;;19.40;76.30;;;;;;6152455;22;20132;-80
2023/09/20 11:55:59;;;;;;;1.50;1.35;;;19.50;76.30;;;;;;6126620;23;20177;-81
2023/09/20 11:58:25;;;;;;;1.40;1.23;;;19.40;76.30;;;;;;6101935;23;20155;-81
2023/09/20 12:00:51;;;;;;;1.40;1.30;;;19.50;76.40;;;;;;6126403;23;20615;-79
2023/09/20 12:03:20;;;;;;;1.50;1.40;;;19.50;76.30;;;;;;6126665;23;20139;-81
2023/09/20 12:05:46;;;;;;;1.38;1.27;;;19.50;76.40;;;;;;6102412;23;20152;-79
2023/09/20 12:08:11;;;;;;;1.67;1.58;;;19.50;76.40;;;;;;6125977;23;20144;-81
2023/09/20 12:10:37;;;;;;;2.00;1.65;;;19.50;76.40;;;;;;6127357;23;20166;-83
2023/09/20 12:13:03;;;;;;;1.38;1.25;;;19.50;76.40;;;;;;6126680;23;20182;-79
2023/09/20 12:15:29;;;;;;;1.50;1.40;;;19.50;76.70;;;;;;6153647;22;20222;-82
2023/09/20 12:17:55;;;;;;;1.20;1.10;;;19.50;76.80;;;;;;6125740;23;20147;-84
2023/09/20 12:20:24;;;;;;;1.30;1.20;;;19.50;77.00;;;;;;6127790;23;20199;-80
2023/09/20 12:22:50;;;;;;;1.10;1.00;;;19.50;77.20;;;;;;6127740;23;20151;-83
2023/09/20 12:25:16;;;;;;;1.15;1.05;;;19.50;77.30;;;;;;6127357;23;20213;-81
2023/09/20 12:27:43;;;;;;;1.70;1.35;;;19.50;77.50;;;;;;6103618;23;20155;-84
2023/09/20 12:30:12;;;;;;;1.95;1.15;;;19.50;77.50;;;;;;6102272;23;20172;-82
2023/09/20 12:32:41;;;;;;;1.40;1.30;;;19.50;77.60;;;;;;6126590;23;20155;-81
2023/09/20 12:35:09;;;;;;;1.83;1.30;;;19.60;77.60;;;;;;6128155;23;20160;-80
2023/09/20 12:37:35;;;;;;;1.83;1.40;;;19.60;77.70;;;;;;6080570;23;20579;-83
2023/09/20 12:40:06;;;;;;;1.17;1.08;;;19.50;77.70;;;;;;6103338;23;20140;-83
2023/09/20 12:42:34;;;;;;;1.27;1.17;;;19.60;77.80;;;;;;6079826;23;20175;-82
2023/09/20 12:45:04;;;;;;;1.40;1.30;;;19.50;77.70;;;;;;6151621;22;20489;-81
2023/09/20 12:47:32;;;;;;;1.55;1.10;;;19.60;77.80;;;;;;6126735;23;20159;-85
2023/09/20 12:49:57;;;;;;;1.40;1.30;;;19.60;77.80;;;;;;6126518;23;20298;-80
2023/09/20 12:52:23;;;;;;;1.30;1.20;;;19.60;77.90;;;;;;6126560;23;20491;-81
2023/09/20 12:54:49;;;;;;;1.45;1.35;;;19.60;77.80;;;;;;6101871;23;20139;-79
2023/09/20 12:57:15;;;;;;;1.40;1.30;;;19.60;78.00;;;;;;6125651;23;20154;-84
2023/09/20 12:59:41;;;;;;;1.40;1.30;;;19.60;78.80;;;;;;6126408;23;20151;-82
2023/09/20 13:02:08;;;;;;;1.50;1.40;;;19.60;78.00;;;;;;6126405;23;20200;-80
2023/09/20 13:04:34;;;;;;;1.98;1.35;;;19.60;78.00;;;;;;6127771;23;20131;-82
2023/09/20 13:07:00;;;;;;;1.58;1.48;;;19.60;78.20;;;;;;6127830;23;20170;-83
2023/09/20 13:09:27;;;;;;;1.65;1.42;;;19.60;78.20;;;;;;6126467;23;20172;-82
2023/09/20 13:11:53;;;;;;;1.42;1.33;;;19.60;78.30;;;;;;6126038;23;20214;-80
2023/09/20 13:14:19;;;;;;;1.58;1.45;;;19.70;78.40;;;;;;6126044;23;20139;-81
2023/09/20 13:16:49;;;;;;;1.50;1.40;;;19.60;78.40;;;;;;6101727;23;20144;-81
2023/09/20 13:19:37;;;;;;;2.30;1.48;;;19.60;78.50;;;;;;6126491;23;20132;-83
2023/09/20 13:22:04;;;;;;;2.17;1.30;;;19.60;78.50;;;;;;6152067;23;20190;-83
2023/09/20 13:24:39;;;;;;;1.50;1.40;;;19.60;78.60;;;;;;6122237;23;20196;-79
2023/09/20 13:27:05;;;;;;;1.77;1.50;;;19.60;78.60;;;;;;6121634;23;20160;-80
2023/09/20 13:29:30;;;;;;;1.70;1.60;;;19.70;78.70;;;;;;6121017;23;20194;-80
2023/09/20 13:31:57;;;;;;;1.40;1.30;;;19.70;78.80;;;;;;6122260;23;20140;-81
2023/09/20 13:34:25;;;;;;;1.60;1.50;;;19.70;79.00;;;;;;6121950;23;20136;-81
2023/09/20 13:36:50;;;;;;;1.45;1.35;;;19.70;79.00;;;;;;6123124;23;20456;-81
2023/09/20 13:39:16;;;;;;;2.15;1.20;;;19.60;80.00;;;;;;6124347;23;20136;-79
2023/09/20 13:41:44;;;;;;;1.38;1.27;;;19.70;79.20;;;;;;6101268;23;20210;-82
2023/09/20 13:44:09;;;;;;;1.40;1.30;;;19.70;79.40;;;;;;6101455;23;20163;-80